Esther, Canada
Current Conditions -  °F | °C
As of 7:00 PM on Saturday 25 Oct 2014 (Local Time) from CYKY Reporting Station
Broken Clouds Broken Clouds  
Wind Chill: 34°   Ceiling: 26000
Heat Index: 43°   Visibility: 15mi
Dew Point: 30°   Wind: 20mph
Humidity: 61%   Direction: 90°E
Pressure: 29.72"   Gusts: NA
Location:  51.68°N, 110.26°W
Report Text: CYKY 260100Z 09017KT 15SM FEW070 BKN260 06/M01 A2972 RMK AC2CI4 SLP089
Loading
Personal Weather Stations






























Interactive Weather Map
Tropical Storm Tracking
New forecast layout! Learn more

10-Day Weather Forecast

Advertisements
Track Severe Weather on mobile